createdAt,value
2023-01-04T00:00:10.951Z,19.58
2023-01-04T00:02:39.085Z,25.20
2023-01-04T00:05:07.474Z,26.58
2023-01-04T00:07:35.134Z,29.42
2023-01-04T00:10:02.801Z,26.10
2023-01-04T00:12:30.898Z,22.92
2023-01-04T00:14:58.756Z,28.45
2023-01-04T00:17:26.581Z,36.25
2023-01-04T00:19:54.269Z,25.50
2023-01-04T00:22:22.362Z,29.23
2023-01-04T00:24:50.135Z,28.17
2023-01-04T00:27:18.034Z,27.20
2023-01-04T00:29:45.769Z,29.90
2023-01-04T00:32:13.470Z,31.38
2023-01-04T00:34:41.329Z,27.17
2023-01-04T00:37:09.122Z,26.05
2023-01-04T00:39:37.076Z,29.63
2023-01-04T00:42:07.704Z,28.98
2023-01-04T00:44:35.705Z,25.30
2023-01-04T00:47:04.769Z,23.40
2023-01-04T00:49:32.501Z,23.55
2023-01-04T00:52:00.546Z,19.15
2023-01-04T00:54:28.525Z,24.33
2023-01-04T00:56:56.219Z,20.67
2023-01-04T00:59:23.958Z,21.92
2023-01-04T01:01:52.255Z,20.52
2023-01-04T01:04:21.399Z,14.98
2023-01-04T01:06:49.860Z,19.60
2023-01-04T01:09:18.032Z,18.20
2023-01-04T01:11:45.899Z,14.73
2023-01-04T01:14:16.613Z,19.30
2023-01-04T01:16:55.218Z,16.42
2023-01-04T01:19:24.983Z,17.13
2023-01-04T01:21:52.743Z,18.73
2023-01-04T01:24:21.494Z,23.23
2023-01-04T01:26:49.595Z,22.58
2023-01-04T01:29:17.486Z,23.42
2023-01-04T01:31:45.275Z,21.23
2023-01-04T01:34:13.258Z,20.17
2023-01-04T01:36:41.158Z,23.60
2023-01-04T01:39:12.319Z,18.88
2023-01-04T01:44:07.738Z,22.58
2023-01-04T01:46:44.107Z,24.38
2023-01-04T01:49:26.464Z,24.85
2023-01-04T01:51:55.339Z,29.58
2023-01-04T01:54:49.485Z,23.08
2023-01-04T01:57:21.994Z,28.92
2023-01-04T01:59:50.405Z,23.02
2023-01-04T02:02:18.506Z,24.98
2023-01-04T02:04:47.986Z,22.52
2023-01-04T02:07:17.697Z,21.35
2023-01-04T02:09:46.431Z,23.25
2023-01-04T02:12:14.724Z,24.02
2023-01-04T02:14:43.899Z,24.73
2023-01-04T02:17:15.828Z,21.50
2023-01-04T02:20:10.966Z,20.58
2023-01-04T02:22:48.128Z,19.80
2023-01-04T02:25:31.321Z,24.10
2023-01-04T02:28:25.373Z,20.77
2023-01-04T02:30:56.135Z,20.95
2023-01-04T02:33:26.900Z,17.52
2023-01-04T02:35:54.697Z,23.63
2023-01-04T02:38:28.493Z,21.65
2023-01-04T02:41:15.261Z,21.75
2023-01-04T02:44:09.680Z,20.80
2023-01-04T02:46:41.331Z,26.92
2023-01-04T02:49:41.696Z,17.52
2023-01-04T02:52:09.641Z,20.02
2023-01-04T02:54:38.391Z,20.88
2023-01-04T02:57:28.450Z,15.85
2023-01-04T03:00:15.304Z,17.33
2023-01-04T03:03:04.795Z,16.58
2023-01-04T03:06:00.326Z,21.10
2023-01-04T03:08:28.188Z,18.40
2023-01-04T03:11:28.895Z,19.23
2023-01-04T03:14:30.725Z,18.60
2023-01-04T03:17:01.153Z,20.40
2023-01-04T03:19:47.970Z,21.38
2023-01-04T03:22:36.048Z,18.00
2023-01-04T03:25:23.415Z,14.82
2023-01-04T03:28:10.755Z,20.63
2023-01-04T03:31:01.526Z,17.63
2023-01-04T03:33:48.352Z,18.20
2023-01-04T03:36:30.033Z,22.48
2023-01-04T03:39:20.216Z,25.92
2023-01-04T03:42:10.293Z,19.15
2023-01-04T03:45:09.767Z,22.52
2023-01-04T03:48:08.691Z,24.27
2023-01-04T03:50:42.575Z,17.48
2023-01-04T03:53:10.831Z,23.88
2023-01-04T03:55:39.585Z,18.92
2023-01-04T03:58:07.331Z,16.80
2023-01-04T04:00:35.405Z,19.08
2023-01-04T04:03:08.634Z,21.35
2023-01-04T04:05:57.263Z,20.52
2023-01-04T04:08:31.569Z,22.15
2023-01-04T04:11:19.681Z,19.80
2023-01-04T04:13:47.957Z,22.58
2023-01-04T04:16:15.645Z,18.80
2023-01-04T04:18:43.397Z,16.88
2023-01-04T04:21:11.231Z,18.85
2023-01-04T04:23:38.980Z,17.25
2023-01-04T04:26:06.688Z,17.80
2023-01-04T04:28:34.530Z,17.63
2023-01-04T04:31:02.423Z,17.77
2023-01-04T04:33:30.346Z,17.33
2023-01-04T04:35:58.180Z,17.25
2023-01-04T04:38:25.975Z,19.80
2023-01-04T04:41:12.598Z,14.73
2023-01-04T04:43:40.393Z,18.08
2023-01-04T04:46:08.107Z,16.88
2023-01-04T04:48:36.087Z,18.92
2023-01-04T04:51:03.810Z,15.60
2023-01-04T04:53:31.579Z,15.93
2023-01-04T04:55:59.631Z,16.52
2023-01-04T04:58:27.513Z,16.05
2023-01-04T05:00:55.283Z,14.82
2023-01-04T05:03:23.280Z,13.98
2023-01-04T05:05:51.006Z,14.93
2023-01-04T05:08:18.631Z,13.88
2023-01-04T05:10:46.286Z,16.90
2023-01-04T05:13:14.966Z,13.85
2023-01-04T05:15:47.123Z,14.80
2023-01-04T05:18:15.858Z,13.52
2023-01-04T05:20:44.034Z,13.27
2023-01-04T05:23:12.641Z,13.88
2023-01-04T05:25:40.628Z,13.00
2023-01-04T05:28:08.741Z,12.88
2023-01-04T05:30:52.026Z,15.68
2023-01-04T05:33:23.069Z,14.48
2023-01-04T05:35:50.943Z,12.43
2023-01-04T05:38:19.007Z,12.80
2023-01-04T05:40:47.016Z,13.23
2023-01-04T05:43:14.866Z,12.48
2023-01-04T05:45:44.407Z,12.27
2023-01-04T05:48:12.087Z,11.65
2023-01-04T05:50:39.647Z,9.90
2023-01-04T05:53:11.079Z,10.95
2023-01-04T05:55:38.733Z,11.48
2023-01-04T05:58:06.353Z,11.50
2023-01-04T06:00:34.016Z,9.27
2023-01-04T06:03:01.861Z,9.65
2023-01-04T06:05:29.619Z,9.75
2023-01-04T06:07:57.414Z,10.07
2023-01-04T06:10:25.291Z,10.50
2023-01-04T06:12:53.127Z,10.25
2023-01-04T06:15:23.711Z,11.43
2023-01-04T06:17:51.517Z,8.75
2023-01-04T06:20:19.285Z,8.90
2023-01-04T06:22:47.043Z,8.80
2023-01-04T06:25:14.796Z,8.55
2023-01-04T06:27:42.550Z,6.32
2023-01-04T06:30:10.603Z,10.68
2023-01-04T06:32:38.265Z,7.32
2023-01-04T06:35:06.549Z,7.45
2023-01-04T06:37:35.665Z,10.95
2023-01-04T06:40:03.637Z,19.83
2023-01-04T06:42:46.575Z,12.77
2023-01-04T06:45:15.525Z,12.02
2023-01-04T06:47:43.246Z,13.50
2023-01-04T06:50:11.006Z,12.13
2023-01-04T06:52:38.850Z,11.98
2023-01-04T06:55:09.478Z,11.07
2023-01-04T06:57:37.577Z,12.63
2023-01-04T07:00:06.475Z,10.80
2023-01-04T07:02:34.424Z,12.13
2023-01-04T07:05:02.576Z,11.13
2023-01-04T07:07:30.798Z,10.93
2023-01-04T07:10:02.312Z,8.40
2023-01-04T07:12:33.122Z,8.70
2023-01-04T07:15:00.995Z,7.55
2023-01-04T07:17:30.155Z,10.60
2023-01-04T07:19:57.838Z,9.10
2023-01-04T07:22:25.582Z,12.35
2023-01-04T07:24:53.377Z,9.75
2023-01-04T07:27:21.335Z,11.30
2023-01-04T07:29:49.141Z,14.27
2023-01-04T07:32:16.934Z,13.15
2023-01-04T07:34:44.836Z,11.80
2023-01-04T07:37:13.303Z,11.45
2023-01-04T07:39:41.072Z,12.20
2023-01-04T07:42:08.940Z,10.32
2023-01-04T07:44:36.623Z,12.40
2023-01-04T07:47:04.719Z,14.25
2023-01-04T07:49:32.519Z,15.02
2023-01-04T07:52:00.245Z,12.23
2023-01-04T07:54:28.010Z,16.98
2023-01-04T07:56:55.819Z,14.82
2023-01-04T07:59:23.769Z,17.52
2023-01-04T08:01:51.999Z,12.85
2023-01-04T08:04:23.135Z,13.52
2023-01-04T08:06:51.131Z,12.95
2023-01-04T08:09:19.065Z,15.68
2023-01-04T08:11:47.201Z,15.93
2023-01-04T08:14:14.903Z,15.13
2023-01-04T08:16:43.248Z,16.45
2023-01-04T08:19:21.550Z,16.13
2023-01-04T08:21:49.587Z,14.82
2023-01-04T08:24:18.948Z,13.80
2023-01-04T08:26:47.080Z,15.80
2023-01-04T08:29:14.966Z,13.82
2023-01-04T08:31:42.785Z,11.80
2023-01-04T08:34:11.188Z,14.35
2023-01-04T08:36:49.786Z,14.40
2023-01-04T08:39:17.648Z,10.93
2023-01-04T08:44:39.225Z,10.57
2023-01-04T08:47:07.053Z,13.23
2023-01-04T08:49:34.878Z,10.73
2023-01-04T08:52:02.813Z,10.60
2023-01-04T08:54:30.529Z,12.10
2023-01-04T08:56:58.164Z,11.52
2023-01-04T08:59:25.904Z,10.40
2023-01-04T09:01:53.691Z,12.90
2023-01-04T09:04:21.814Z,11.65
2023-01-04T09:06:49.480Z,11.95
2023-01-04T09:09:17.361Z,14.48
2023-01-04T09:11:45.038Z,11.93
2023-01-04T09:14:14.055Z,15.85
2023-01-04T09:16:41.931Z,13.98
2023-01-04T09:19:10.114Z,14.93
2023-01-04T09:24:08.232Z,14.15
2023-01-04T09:26:36.031Z,15.30
2023-01-04T09:29:04.350Z,14.35
2023-01-04T09:31:32.178Z,17.60
2023-01-04T09:34:17.529Z,15.30
2023-01-04T09:36:47.048Z,13.90
2023-01-04T09:39:23.936Z,13.93
2023-01-04T09:41:59.421Z,11.07
2023-01-04T09:47:49.732Z,12.50
2023-01-04T09:50:22.123Z,9.80
2023-01-04T09:53:04.146Z,12.52
2023-01-04T09:55:36.934Z,12.30
2023-01-04T09:58:13.124Z,11.10
2023-01-04T10:00:44.546Z,12.00
2023-01-04T10:03:21.653Z,11.90
2023-01-04T10:05:49.574Z,11.50
2023-01-04T10:08:18.145Z,11.15
2023-01-04T10:10:55.235Z,11.85
2023-01-04T10:13:26.001Z,13.13
2023-01-04T10:15:59.517Z,10.85
2023-01-04T10:21:32.000Z,11.25
2023-01-04T10:24:11.014Z,12.32
2023-01-04T10:26:42.661Z,10.23
2023-01-04T10:29:28.570Z,10.50
2023-01-04T10:32:05.851Z,12.25
2023-01-04T10:34:41.039Z,12.13
2023-01-04T10:37:13.776Z,9.77
2023-01-04T10:39:41.679Z,9.50
2023-01-04T10:42:28.083Z,12.38
2023-01-04T10:45:06.788Z,10.30
2023-01-04T10:47:42.866Z,10.38
2023-01-04T10:50:23.434Z,9.98
2023-01-04T10:53:17.673Z,11.77
2023-01-04T10:56:25.407Z,9.57
2023-01-04T10:58:48.698Z,10.45
2023-01-04T11:01:23.754Z,10.38
2023-01-04T11:03:58.594Z,12.43
2023-01-04T11:06:28.530Z,9.27
2023-01-04T11:09:22.812Z,10.40
2023-01-04T11:11:54.410Z,11.23
2023-01-04T11:14:22.501Z,9.38
2023-01-04T11:16:52.011Z,11.43
2023-01-04T11:19:19.937Z,9.75
2023-01-04T11:21:50.772Z,11.25
2023-01-04T11:24:34.629Z,10.43
2023-01-04T11:27:14.456Z,9.13
2023-01-04T11:29:42.236Z,7.30
2023-01-04T11:32:22.589Z,10.38
2023-01-04T11:34:52.657Z,4.18
2023-01-04T11:37:39.734Z,6.38
2023-01-04T11:40:25.152Z,5.60
2023-01-04T11:42:54.032Z,5.20
2023-01-04T11:45:23.776Z,7.68
2023-01-04T11:48:00.856Z,6.15
2023-01-04T11:50:40.344Z,8.70
2023-01-04T11:53:27.096Z,4.72
2023-01-04T11:56:12.658Z,7.10
2023-01-04T11:58:40.913Z,4.63
2023-01-04T12:01:23.164Z,6.80
2023-01-04T12:03:51.669Z,3.90
2023-01-04T12:06:22.517Z,5.82
2023-01-04T12:08:50.208Z,5.38
2023-01-04T12:11:29.979Z,5.22
2023-01-04T12:14:01.000Z,3.80
2023-01-04T12:16:56.793Z,5.70
2023-01-04T12:19:25.583Z,3.42
2023-01-04T12:21:55.633Z,5.22
2023-01-04T12:24:29.928Z,3.63
2023-01-04T12:26:57.984Z,2.95
2023-01-04T12:29:25.700Z,6.28
2023-01-04T12:31:54.296Z,3.75
2023-01-04T12:34:28.666Z,3.42
2023-01-04T12:37:05.155Z,2.83
2023-01-04T12:39:44.762Z,5.53
2023-01-04T12:42:15.940Z,3.75
2023-01-04T12:47:38.718Z,5.88
2023-01-04T12:50:14.675Z,5.03
2023-01-04T12:53:10.808Z,6.00
2023-01-04T12:55:43.722Z,6.75
2023-01-04T13:01:28.569Z,4.22
2023-01-04T13:04:04.602Z,5.80
2023-01-04T13:06:35.025Z,7.22
2023-01-04T13:09:03.683Z,7.95
2023-01-04T13:12:04.004Z,5.70
2023-01-04T13:14:51.963Z,9.38
2023-01-04T13:17:21.561Z,5.93
2023-01-04T13:19:49.953Z,6.10
2023-01-04T13:22:29.579Z,6.97
2023-01-04T13:24:58.787Z,5.88
2023-01-04T13:27:29.235Z,5.05
2023-01-04T13:29:56.953Z,5.22
2023-01-04T13:32:24.687Z,6.50
2023-01-04T13:34:52.731Z,6.22
2023-01-04T13:37:33.958Z,4.95
2023-01-04T13:42:31.516Z,5.03
2023-01-04T13:45:19.529Z,5.60
2023-01-04T13:47:50.458Z,3.03
2023-01-04T13:50:27.575Z,4.80
2023-01-04T13:53:06.175Z,4.53
2023-01-04T13:55:37.287Z,7.65
2023-01-04T13:58:17.547Z,4.88
2023-01-04T14:01:03.313Z,4.20
2023-01-04T14:03:33.242Z,5.68
2023-01-04T14:06:13.765Z,6.32
2023-01-04T14:08:45.882Z,7.45
2023-01-04T14:11:36.509Z,6.75
2023-01-04T14:14:04.759Z,5.72
2023-01-04T14:16:32.994Z,8.68
2023-01-04T14:19:20.905Z,6.93
2023-01-04T14:21:49.658Z,6.45
2023-01-04T14:27:34.900Z,4.63
2023-01-04T14:30:35.174Z,5.13
2023-01-04T14:33:11.623Z,6.28
2023-01-04T14:35:44.030Z,8.23
2023-01-04T14:38:19.336Z,7.45
2023-01-04T14:40:47.523Z,6.13
2023-01-04T14:43:34.779Z,9.27
2023-01-04T14:46:02.940Z,8.75
2023-01-04T14:48:31.282Z,8.40
2023-01-04T14:51:00.268Z,11.30
2023-01-04T14:53:28.245Z,11.55
2023-01-04T14:55:55.874Z,7.63
2023-01-04T14:58:23.781Z,8.77
2023-01-04T15:00:51.840Z,8.15
2023-01-04T15:03:19.980Z,6.93
2023-01-04T15:05:47.824Z,9.38
2023-01-04T15:08:15.451Z,8.35
2023-01-04T15:10:43.095Z,9.48
2023-01-04T15:13:10.897Z,6.80
2023-01-04T15:15:38.616Z,8.23
2023-01-04T15:18:06.297Z,8.77
2023-01-04T15:20:34.529Z,10.48
2023-01-04T15:23:02.538Z,10.27
2023-01-04T15:25:30.270Z,9.55
2023-01-04T15:27:58.095Z,9.13
2023-01-04T15:30:25.823Z,9.93
2023-01-04T15:32:53.639Z,10.88
2023-01-04T15:35:21.264Z,9.93
2023-01-04T15:37:49.679Z,7.28
2023-01-04T15:40:18.250Z,10.30
2023-01-04T15:43:01.097Z,11.95
2023-01-04T15:45:40.541Z,13.40
2023-01-04T15:48:10.431Z,12.05
2023-01-04T15:50:39.590Z,11.50
2023-01-04T15:53:08.633Z,10.15
2023-01-04T15:55:37.192Z,8.38
2023-01-04T15:58:05.742Z,8.18
2023-01-04T16:00:33.630Z,10.45
2023-01-04T16:05:36.302Z,14.75
2023-01-04T16:08:04.151Z,7.97
2023-01-04T16:10:34.654Z,8.15
2023-01-04T16:13:02.810Z,8.57
2023-01-04T16:15:30.637Z,8.02
2023-01-04T16:17:58.415Z,10.02
2023-01-04T16:20:26.515Z,10.25
2023-01-04T16:22:56.219Z,8.68
2023-01-04T16:25:24.314Z,11.57
2023-01-04T16:27:53.052Z,9.75
2023-01-04T16:30:24.543Z,7.13
2023-01-04T16:32:57.495Z,7.57
2023-01-04T16:35:25.810Z,10.02
2023-01-04T16:38:01.746Z,13.13
2023-01-04T16:40:29.757Z,11.65
2023-01-04T16:43:00.968Z,10.70
2023-01-04T16:45:29.113Z,10.80
2023-01-04T16:47:58.115Z,13.73
2023-01-04T16:50:26.352Z,15.68
2023-01-04T16:55:36.171Z,17.02
2023-01-04T16:58:04.778Z,12.23
2023-01-04T17:00:32.968Z,13.27
2023-01-04T17:03:00.943Z,10.25
2023-01-04T17:05:28.730Z,8.60
2023-01-04T17:07:56.936Z,10.32
2023-01-04T17:10:29.403Z,8.40
2023-01-04T17:12:58.046Z,9.32
2023-01-04T17:18:15.730Z,10.70
2023-01-04T17:20:44.446Z,8.68
2023-01-04T17:23:12.406Z,9.63
2023-01-04T17:25:40.338Z,8.73
2023-01-04T17:28:07.947Z,10.90
2023-01-04T17:30:38.499Z,10.65
2023-01-04T17:33:07.612Z,9.95
2023-01-04T17:35:39.870Z,9.75
2023-01-04T17:38:07.918Z,11.82
2023-01-04T17:40:36.503Z,9.77
2023-01-04T17:43:07.759Z,10.93
2023-01-04T17:45:36.102Z,8.68
2023-01-04T17:48:04.398Z,13.20
2023-01-04T17:50:32.653Z,12.70
2023-01-04T17:53:00.955Z,13.30
2023-01-04T17:55:29.908Z,10.70
2023-01-04T17:58:07.841Z,13.73
2023-01-04T18:03:07.252Z,14.20
2023-01-04T18:05:45.208Z,11.48
2023-01-04T18:08:20.481Z,9.98
2023-01-04T18:11:06.823Z,10.23
2023-01-04T18:13:36.256Z,11.50
2023-01-04T18:16:23.270Z,11.20
2023-01-04T18:18:51.623Z,10.00
2023-01-04T18:21:29.609Z,8.95
2023-01-04T18:29:34.943Z,11.05
2023-01-04T18:32:02.800Z,8.40
2023-01-04T18:34:31.010Z,9.15
2023-01-04T18:36:58.843Z,8.15
2023-01-04T18:39:26.934Z,8.05
2023-01-04T18:41:54.818Z,10.48
2023-01-04T18:44:41.222Z,10.57
2023-01-04T18:47:10.723Z,12.02
2023-01-04T18:49:39.248Z,8.90
2023-01-04T18:52:07.135Z,13.13
2023-01-04T18:54:35.284Z,15.57
2023-01-04T18:57:03.573Z,18.38
2023-01-04T18:59:31.422Z,13.48
2023-01-04T19:02:03.241Z,15.13
2023-01-04T19:04:32.758Z,12.75
2023-01-04T19:07:01.134Z,14.73
2023-01-04T19:09:29.030Z,16.50
2023-01-04T19:11:56.790Z,19.23
2023-01-04T19:14:24.705Z,13.18
2023-01-04T19:16:53.442Z,14.85
2023-01-04T19:19:21.392Z,15.88
2023-01-04T19:21:49.378Z,17.35
2023-01-04T19:24:17.092Z,14.63
2023-01-04T19:26:44.855Z,20.40
2023-01-04T19:29:12.505Z,17.50
2023-01-04T19:31:40.521Z,16.08
2023-01-04T19:34:10.185Z,15.57
2023-01-04T19:36:38.667Z,14.70
2023-01-04T19:39:09.671Z,16.77
2023-01-04T19:41:38.347Z,15.57
2023-01-04T19:44:08.156Z,8.27
2023-01-04T19:46:38.590Z,4.40
2023-01-04T19:49:12.417Z,2.28
2023-01-04T19:51:44.488Z,1.30
2023-01-04T19:54:12.514Z,1.23
2023-01-04T19:56:40.288Z,0.95
2023-01-04T19:59:07.943Z,0.75
2023-01-04T20:01:37.284Z,1.20
2023-01-04T20:04:05.417Z,0.40
2023-01-04T20:06:33.592Z,0.40
2023-01-04T20:09:01.816Z,0.73
2023-01-04T20:11:29.909Z,0.30
2023-01-04T20:13:58.021Z,0.40
2023-01-04T20:16:26.426Z,0.38
2023-01-04T20:18:59.986Z,0.75
2023-01-04T20:21:28.391Z,0.75
2023-01-04T20:23:56.094Z,0.70
2023-01-04T20:26:24.187Z,0.32
2023-01-04T20:28:52.097Z,0.77
2023-01-04T20:31:20.873Z,2.30
2023-01-04T20:33:48.833Z,1.08
2023-01-04T20:36:21.133Z,0.60
2023-01-04T20:38:49.495Z,0.95
2023-01-04T20:41:18.342Z,0.85
2023-01-04T20:43:46.836Z,0.60
2023-01-04T20:46:16.515Z,1.52
2023-01-04T20:48:47.671Z,0.93
2023-01-04T20:51:17.171Z,1.80
2023-01-04T20:53:45.641Z,2.20
2023-01-04T20:56:22.099Z,1.45
2023-01-04T20:58:59.588Z,5.93
2023-01-04T21:01:27.555Z,4.07
2023-01-04T21:04:05.530Z,3.47
2023-01-04T21:06:44.159Z,2.08
2023-01-04T21:09:11.899Z,2.22
2023-01-04T21:11:39.623Z,2.05
2023-01-04T21:14:07.538Z,1.92
2023-01-04T21:16:35.308Z,2.97
2023-01-04T21:19:03.092Z,1.50
2023-01-04T21:21:33.754Z,4.03
2023-01-04T21:24:01.526Z,1.40
2023-01-04T21:26:30.073Z,2.17
2023-01-04T21:29:01.936Z,2.00
2023-01-04T21:31:30.143Z,3.10
2023-01-04T21:33:58.900Z,3.80
2023-01-04T21:36:27.846Z,4.07
2023-01-04T21:39:19.648Z,0.30
2023-01-04T21:41:48.039Z,0.45
2023-01-04T21:46:43.893Z,0.40
2023-01-04T21:49:11.983Z,0.45
2023-01-04T21:51:39.644Z,0.65
2023-01-04T21:54:10.970Z,2.47
2023-01-04T21:56:41.479Z,1.75
2023-01-04T21:59:22.195Z,0.52
2023-01-04T22:01:50.783Z,1.58
2023-01-04T22:04:18.655Z,0.65
2023-01-04T22:06:46.410Z,0.30
2023-01-04T22:09:17.227Z,1.65
2023-01-04T22:11:49.959Z,0.85
2023-01-04T22:14:18.401Z,1.00
2023-01-04T22:16:50.792Z,0.43
2023-01-04T22:19:18.897Z,1.95
2023-01-04T22:21:46.571Z,0.90
2023-01-04T22:24:16.174Z,1.25
2023-01-04T22:26:44.708Z,1.48
2023-01-04T22:29:12.449Z,0.65
2023-01-04T22:31:40.567Z,0.70
2023-01-04T22:34:08.524Z,0.77
2023-01-04T22:36:36.605Z,1.40
2023-01-04T22:39:04.719Z,0.28
2023-01-04T22:41:32.346Z,0.68
2023-01-04T22:44:01.829Z,0.63
2023-01-04T22:46:30.087Z,0.30
2023-01-04T22:48:58.413Z,0.22
2023-01-04T22:51:30.106Z,0.38
2023-01-04T22:53:59.451Z,0.32
2023-01-04T22:56:27.469Z,0.30
2023-01-04T22:58:56.541Z,0.30
2023-01-04T23:01:25.739Z,0.60
2023-01-04T23:03:55.276Z,0.30
2023-01-04T23:06:23.490Z,0.98
2023-01-04T23:08:58.479Z,0.65
2023-01-04T23:11:26.663Z,0.45
2023-01-04T23:13:54.809Z,0.20
2023-01-04T23:16:27.882Z,0.40
2023-01-04T23:18:59.591Z,0.30
2023-01-04T23:21:27.451Z,0.20
2023-01-04T23:23:55.587Z,0.30
2023-01-04T23:26:24.055Z,0.35
2023-01-04T23:28:52.346Z,0.75
2023-01-04T23:31:23.137Z,0.40
2023-01-04T23:33:55.152Z,0.55
2023-01-04T23:36:24.302Z,0.55
2023-01-04T23:38:53.649Z,0.20
2023-01-04T23:41:21.270Z,0.45
2023-01-04T23:43:48.987Z,0.65
2023-01-04T23:46:18.385Z,1.58
2023-01-04T23:48:46.091Z,0.30
2023-01-04T23:51:13.911Z,0.55
2023-01-04T23:53:41.617Z,0.52
2023-01-04T23:56:14.575Z,0.20
2023-01-04T23:58:42.364Z,0.47
